Time;durP1;ratioP1;P1;durP2;ratioP2;P2;SDS_P1;SDS_P2;PMS_P1;PMS_P2;Temp;Humidity;BMP_temperature;BMP_pressure;BME280_temperature;BME280_humidity;BME280_pressure;Samples;Min_cycle;Max_cycle;Signal;HPM_P1;HPM_P2
2023/12/13 00:02:16;;;;;;;19.20;11.07;;;7.60;99.90;;;;;;5066429;28;20048;-84
2023/12/13 00:04:41;;;;;;;20.15;11.88;;;7.60;99.90;;;;;;5066120;28;20150;-84
2023/12/13 00:07:07;;;;;;;17.40;11.05;;;7.60;99.90;;;;;;5066422;28;20044;-83
2023/12/13 00:09:33;;;;;;;19.70;11.57;;;7.60;99.90;;;;;;5049247;28;20034;-84
2023/12/13 00:11:59;;;;;;;18.25;11.27;;;7.60;99.90;;;;;;5066416;28;20025;-84
2023/12/13 00:14:24;;;;;;;18.80;11.50;;;7.60;99.90;;;;;;5033053;28;20568;-84
2023/12/13 00:16:51;;;;;;;17.02;10.55;;;7.60;99.90;;;;;;5049543;28;20033;-84
2023/12/13 00:19:16;;;;;;;18.08;10.88;;;7.60;99.90;;;;;;5049198;28;20043;-84
2023/12/13 00:21:43;;;;;;;19.30;11.45;;;7.60;99.90;;;;;;5065721;28;20056;-84
2023/12/13 00:24:09;;;;;;;16.27;10.52;;;7.60;99.90;;;;;;5065060;28;20052;-84
2023/12/13 00:26:35;;;;;;;17.65;10.30;;;7.60;99.90;;;;;;5067663;28;20410;-84
2023/12/13 00:29:01;;;;;;;21.27;11.32;;;7.60;99.90;;;;;;5082790;28;20173;-84
2023/12/13 00:31:26;;;;;;;18.63;11.20;;;7.50;99.90;;;;;;5072262;28;20088;-84
2023/12/13 00:33:52;;;;;;;18.60;10.27;;;7.50;99.90;;;;;;5065857;28;20020;-85
2023/12/13 00:36:18;;;;;;;17.33;10.32;;;7.50;99.90;;;;;;5044147;28;20366;-83
2023/12/13 00:38:44;;;;;;;17.75;10.65;;;7.60;99.90;;;;;;5045300;28;20282;-84
2023/12/13 00:41:09;;;;;;;17.02;9.57;;;7.50;99.90;;;;;;5044759;28;20266;-84
2023/12/13 00:43:35;;;;;;;15.55;8.98;;;7.50;99.90;;;;;;5054128;28;20279;-84
2023/12/13 00:46:01;;;;;;;13.65;8.02;;;7.50;99.90;;;;;;5061226;28;20111;-84
2023/12/13 00:48:27;;;;;;;14.48;7.80;;;7.50;99.90;;;;;;5074677;28;20321;-84
2023/12/13 00:50:53;;;;;;;12.95;6.47;;;7.40;99.90;;;;;;5049112;28;20031;-84
2023/12/13 00:53:18;;;;;;;12.75;6.50;;;7.50;99.90;;;;;;5082428;28;20089;-84
2023/12/13 00:55:44;;;;;;;12.50;6.65;;;7.40;99.90;;;;;;5068597;28;20023;-84
2023/12/13 00:58:10;;;;;;;11.38;6.20;;;7.40;99.90;;;;;;5032847;28;20052;-84
2023/12/13 01:00:35;;;;;;;12.85;6.45;;;7.50;99.90;;;;;;5045402;28;20060;-84
2023/12/13 01:03:01;;;;;;;10.90;5.75;;;7.50;99.90;;;;;;5033793;28;20040;-84
2023/12/13 01:05:27;;;;;;;12.20;6.13;;;7.50;99.90;;;;;;5065523;28;20099;-84
2023/12/13 01:07:52;;;;;;;10.88;6.18;;;7.50;99.90;;;;;;5075609;28;20277;-84
2023/12/13 01:10:20;;;;;;;12.15;7.05;;;7.50;99.90;;;;;;5065112;28;20024;-84
2023/12/13 01:12:45;;;;;;;12.48;7.07;;;7.50;99.90;;;;;;5065559;28;20055;-84
2023/12/13 01:15:11;;;;;;;14.45;8.25;;;7.50;99.90;;;;;;5039210;28;20025;-84
2023/12/13 01:17:37;;;;;;;15.70;8.57;;;7.50;99.90;;;;;;5042512;28;20051;-84
2023/12/13 01:20:06;;;;;;;14.45;7.97;;;7.40;99.90;;;;;;5037187;28;20407;-85
2023/12/13 01:22:32;;;;;;;19.05;9.48;;;7.50;99.90;;;;;;5064501;28;20055;-84
2023/12/13 01:24:58;;;;;;;18.77;10.07;;;7.50;99.90;;;;;;5076860;28;20089;-84
2023/12/13 01:27:24;;;;;;;17.73;10.70;;;7.50;99.90;;;;;;5068144;28;20039;-84
2023/12/13 01:29:50;;;;;;;19.70;11.20;;;7.50;99.90;;;;;;5085015;28;20024;-85
2023/12/13 01:32:15;;;;;;;19.27;10.38;;;7.50;99.90;;;;;;5081718;28;20067;-84
2023/12/13 01:34:41;;;;;;;19.02;11.18;;;7.50;99.90;;;;;;5071049;28;20027;-84
2023/12/13 01:37:07;;;;;;;19.38;10.80;;;7.50;99.90;;;;;;5093103;28;20341;-84
2023/12/13 01:39:32;;;;;;;20.75;10.98;;;7.50;99.90;;;;;;5063524;28;20024;-84
2023/12/13 01:41:58;;;;;;;20.98;11.38;;;7.50;99.90;;;;;;5072980;28;20032;-83
2023/12/13 01:44:24;;;;;;;17.92;11.52;;;7.50;99.90;;;;;;5049458;28;20281;-83
2023/12/13 01:46:51;;;;;;;20.90;12.25;;;7.50;99.90;;;;;;5077397;28;20055;-84
2023/12/13 01:49:18;;;;;;;19.52;11.65;;;7.50;99.90;;;;;;5054472;28;20020;-84
2023/12/13 01:51:46;;;;;;;19.60;11.43;;;7.60;99.90;;;;;;5068721;28;20032;-84
2023/12/13 01:54:16;;;;;;;20.02;11.43;;;7.60;99.90;;;;;;5069647;28;20059;-83
2023/12/13 01:56:44;;;;;;;19.08;11.95;;;7.60;99.90;;;;;;5102208;28;20028;-83
2023/12/13 01:59:13;;;;;;;18.45;10.98;;;7.60;99.90;;;;;;5052756;28;20047;-84
2023/12/13 02:01:40;;;;;;;19.45;11.93;;;7.50;99.90;;;;;;5085325;28;20039;-83
2023/12/13 02:04:06;;;;;;;17.83;11.07;;;7.60;99.90;;;;;;5055766;28;20028;-84
2023/12/13 02:06:32;;;;;;;21.35;11.32;;;7.50;99.90;;;;;;5052002;28;20036;-83
2023/12/13 02:08:58;;;;;;;21.45;13.07;;;7.60;99.90;;;;;;5051598;28;20032;-84
2023/12/13 02:11:24;;;;;;;19.70;11.57;;;7.50;99.90;;;;;;5062868;28;20034;-84
2023/12/13 02:13:51;;;;;;;21.20;12.25;;;7.50;99.90;;;;;;5051275;28;20052;-83
2023/12/13 02:16:16;;;;;;;18.38;11.07;;;7.60;99.90;;;;;;5081891;28;20032;-83
2023/12/13 02:18:42;;;;;;;22.15;12.93;;;7.60;99.90;;;;;;5050939;28;20034;-84
2023/12/13 02:21:08;;;;;;;20.38;12.38;;;7.60;99.90;;;;;;5076731;28;20052;-84
2023/12/13 02:23:34;;;;;;;21.42;12.85;;;7.60;99.90;;;;;;5044572;28;20024;-84
2023/12/13 02:26:02;;;;;;;20.42;12.88;;;7.60;99.90;;;;;;5080583;28;20162;-84
2023/12/13 02:28:29;;;;;;;22.27;13.77;;;7.60;99.90;;;;;;5064078;28;20051;-84
2023/12/13 02:30:56;;;;;;;21.92;12.52;;;7.60;99.90;;;;;;5080196;28;20048;-84
2023/12/13 02:33:24;;;;;;;20.45;12.52;;;7.60;99.90;;;;;;5063900;28;20036;-84
2023/12/13 02:35:51;;;;;;;20.58;12.77;;;7.60;99.90;;;;;;5063781;28;20032;-83
2023/12/13 02:38:16;;;;;;;21.25;12.95;;;7.60;99.90;;;;;;5064258;28;20077;-84
2023/12/13 02:40:42;;;;;;;20.42;12.35;;;7.60;99.90;;;;;;5080449;28;20032;-83
2023/12/13 02:43:08;;;;;;;21.67;13.20;;;7.60;99.90;;;;;;5064015;28;20246;-83
2023/12/13 02:45:33;;;;;;;21.15;12.52;;;7.60;99.90;;;;;;5030597;28;20099;-84
2023/12/13 02:47:59;;;;;;;20.30;12.35;;;7.60;99.90;;;;;;5046940;28;20181;-84
2023/12/13 02:50:25;;;;;;;24.67;13.68;;;7.60;99.90;;;;;;5063651;28;20049;-83
2023/12/13 02:52:51;;;;;;;24.42;14.02;;;7.60;99.90;;;;;;5080709;28;20266;-84
2023/12/13 02:55:17;;;;;;;24.17;13.80;;;7.60;99.90;;;;;;5063469;28;20031;-84
2023/12/13 02:57:43;;;;;;;21.48;13.68;;;7.90;99.90;;;;;;5047036;28;20047;-84
2023/12/13 03:00:09;;;;;;;20.98;13.40;;;7.60;99.90;;;;;;5080992;28;20056;-83
2023/12/13 03:02:35;;;;;;;27.38;14.15;;;7.60;99.90;;;;;;5050942;28;20108;-84
2023/12/13 03:05:03;;;;;;;21.48;13.25;;;7.60;99.90;;;;;;5084181;28;20032;-84
2023/12/13 03:07:28;;;;;;;20.65;13.10;;;7.60;99.90;;;;;;5051039;28;20028;-84
2023/12/13 03:09:54;;;;;;;22.00;13.80;;;7.60;99.90;;;;;;5080631;28;20167;-84
2023/12/13 03:12:20;;;;;;;24.20;13.80;;;7.60;99.90;;;;;;5067659;28;20052;-84
2023/12/13 03:14:45;;;;;;;22.85;13.45;;;7.60;99.90;;;;;;5034070;28;20024;-84
2023/12/13 03:17:12;;;;;;;21.58;13.45;;;7.60;99.90;;;;;;5067237;28;20263;-84
2023/12/13 03:19:38;;;;;;;21.88;14.43;;;7.60;99.90;;;;;;5067213;28;20047;-84
2023/12/13 03:22:04;;;;;;;21.73;12.45;;;7.70;99.90;;;;;;5083033;28;20306;-84
2023/12/13 03:24:30;;;;;;;21.45;13.20;;;7.60;99.90;;;;;;5069262;28;20032;-84
2023/12/13 03:26:56;;;;;;;21.35;12.70;;;7.60;99.90;;;;;;5056291;28;20163;-84
2023/12/13 03:29:22;;;;;;;21.17;12.60;;;7.60;99.90;;;;;;5080582;28;20059;-84
2023/12/13 03:31:47;;;;;;;22.33;12.63;;;7.60;99.90;;;;;;5054201;28;20390;-84
2023/12/13 03:34:14;;;;;;;20.55;12.50;;;7.60;99.90;;;;;;5087105;28;20036;-84
2023/12/13 03:36:40;;;;;;;20.35;11.90;;;7.60;99.90;;;;;;5054127;28;20081;-84
2023/12/13 03:39:07;;;;;;;21.70;13.25;;;7.60;99.90;;;;;;5120687;28;20046;-84
2023/12/13 03:41:34;;;;;;;21.10;12.80;;;7.70;99.90;;;;;;5103976;28;20075;-84
2023/12/13 03:44:00;;;;;;;20.50;12.48;;;7.60;99.90;;;;;;5078900;28;20048;-84
2023/12/13 03:46:26;;;;;;;20.50;12.70;;;7.60;99.90;;;;;;5049833;28;20033;-84
2023/12/13 03:48:51;;;;;;;18.63;12.10;;;7.60;99.90;;;;;;5079150;28;20030;-84
2023/12/13 03:51:17;;;;;;;23.13;12.73;;;7.60;99.90;;;;;;5073891;28;20038;-84
2023/12/13 03:53:43;;;;;;;23.38;12.55;;;7.60;99.90;;;;;;5086709;28;20070;-84
2023/12/13 03:56:12;;;;;;;23.75;12.35;;;7.60;99.90;;;;;;5055016;28;20291;-83
2023/12/13 03:58:38;;;;;;;21.08;12.05;;;7.60;99.90;;;;;;5071394;28;20023;-83
2023/12/13 04:01:04;;;;;;;19.42;11.80;;;7.60;99.90;;;;;;5053292;28;20194;-84
2023/12/13 04:03:30;;;;;;;20.90;12.05;;;7.60;99.90;;;;;;5060002;28;20028;-84
2023/12/13 04:05:56;;;;;;;18.83;11.48;;;7.50;99.90;;;;;;5086379;28;20051;-83
2023/12/13 04:08:21;;;;;;;20.20;11.02;;;7.60;99.90;;;;;;5069600;28;20097;-84
2023/12/13 04:10:47;;;;;;;21.40;11.75;;;7.50;99.90;;;;;;5069570;28;20024;-84
2023/12/13 04:13:13;;;;;;;20.75;11.93;;;7.60;99.90;;;;;;5068631;28;20289;-84
2023/12/13 04:15:39;;;;;;;18.05;10.45;;;7.60;99.90;;;;;;5076003;28;20131;-84
2023/12/13 04:18:05;;;;;;;18.80;11.57;;;7.60;99.90;;;;;;5079387;28;20462;-84
2023/12/13 04:20:30;;;;;;;19.45;11.80;;;7.50;99.90;;;;;;5053705;28;20097;-84
2023/12/13 04:22:56;;;;;;;19.45;11.75;;;7.60;99.90;;;;;;5052895;28;20032;-84
2023/12/13 04:25:22;;;;;;;20.15;11.60;;;7.60;99.90;;;;;;5069268;28;20368;-84
2023/12/13 04:27:47;;;;;;;19.55;11.65;;;7.60;99.90;;;;;;5069758;28;20101;-84
2023/12/13 04:30:14;;;;;;;17.95;11.02;;;7.60;99.90;;;;;;5070018;28;20028;-84
2023/12/13 04:32:40;;;;;;;18.25;10.65;;;7.50;99.90;;;;;;5079032;28;20076;-84
2023/12/13 04:35:09;;;;;;;18.90;11.45;;;7.60;99.90;;;;;;5102644;28;20028;-84
2023/12/13 04:37:36;;;;;;;20.52;11.73;;;7.60;99.90;;;;;;5069312;28;20081;-84
2023/12/13 04:40:03;;;;;;;19.23;11.65;;;7.60;99.90;;;;;;5052290;28;20446;-83
2023/12/13 04:42:28;;;;;;;19.20;11.60;;;7.60;99.90;;;;;;5057307;28;20071;-84
2023/12/13 04:44:55;;;;;;;20.58;11.48;;;7.60;99.90;;;;;;5052386;28;20196;-84
2023/12/13 04:47:21;;;;;;;19.08;11.48;;;7.60;99.90;;;;;;5085714;28;20204;-83
2023/12/13 04:49:46;;;;;;;20.88;11.23;;;7.60;99.90;;;;;;5068821;28;20044;-84
2023/12/13 04:52:12;;;;;;;19.17;11.50;;;7.50;99.90;;;;;;5075432;28;20032;-84
2023/12/13 04:54:38;;;;;;;21.35;11.07;;;7.60;99.90;;;;;;5051823;28;20054;-84
2023/12/13 04:57:04;;;;;;;19.05;10.73;;;7.50;99.90;;;;;;5068981;28;20054;-84
2023/12/13 04:59:30;;;;;;;17.85;10.13;;;7.60;99.90;;;;;;5085253;28;20185;-84
2023/12/13 05:01:56;;;;;;;18.45;10.68;;;7.50;99.90;;;;;;5053430;28;20028;-84
2023/12/13 05:04:22;;;;;;;17.48;9.93;;;7.50;99.90;;;;;;5051917;28;20109;-84
2023/12/13 05:06:48;;;;;;;18.88;10.15;;;7.60;99.90;;;;;;5085644;28;20151;-84
2023/12/13 05:09:14;;;;;;;18.38;10.82;;;7.50;99.90;;;;;;5101468;28;20024;-84
2023/12/13 05:11:39;;;;;;;18.65;10.45;;;7.60;99.90;;;;;;5085038;28;20420;-84
2023/12/13 05:14:05;;;;;;;17.17;9.63;;;7.60;99.90;;;;;;5085849;28;20060;-83
2023/12/13 05:16:31;;;;;;;18.05;10.30;;;7.60;99.90;;;;;;5102039;28;20109;-83
2023/12/13 05:18:56;;;;;;;17.88;9.90;;;7.80;99.90;;;;;;5055077;28;20051;-84
2023/12/13 05:21:22;;;;;;;16.40;9.57;;;7.60;99.90;;;;;;5085038;28;20099;-84
2023/12/13 05:23:48;;;;;;;18.65;10.48;;;7.60;99.90;;;;;;5053386;28;20032;-84
2023/12/13 05:26:14;;;;;;;18.42;10.65;;;7.60;99.90;;;;;;5084256;28;20081;-84
2023/12/13 05:28:39;;;;;;;17.17;10.25;;;7.50;99.90;;;;;;5052698;28;20043;-84
2023/12/13 05:31:05;;;;;;;18.48;9.73;;;7.60;99.90;;;;;;5084570;28;20059;-84
2023/12/13 05:33:31;;;;;;;17.77;10.25;;;7.60;99.90;;;;;;5068180;28;20227;-84
2023/12/13 05:35:57;;;;;;;16.50;9.50;;;7.60;99.90;;;;;;5117208;28;20024;-84
2023/12/13 05:38:22;;;;;;;17.50;10.15;;;7.60;99.90;;;;;;5068085;28;20285;-84
2023/12/13 05:40:48;;;;;;;18.50;10.07;;;7.60;99.90;;;;;;5049899;28;20025;-84
2023/12/13 05:43:14;;;;;;;17.27;9.45;;;7.60;99.90;;;;;;5068467;28;20163;-83
2023/12/13 05:45:40;;;;;;;17.90;9.80;;;7.60;99.90;;;;;;5083954;28;20093;-84
2023/12/13 05:48:05;;;;;;;16.17;9.90;;;7.60;99.90;;;;;;5068231;28;20039;-83
2023/12/13 05:50:31;;;;;;;16.90;10.82;;;7.60;99.90;;;;;;5088230;28;20051;-84
2023/12/13 05:52:57;;;;;;;20.20;10.52;;;7.60;99.90;;;;;;5051363;28;20083;-84
2023/12/13 05:55:23;;;;;;;17.30;10.60;;;7.60;99.90;;;;;;5068231;28;20193;-84
2023/12/13 05:57:48;;;;;;;17.23;9.55;;;7.60;99.90;;;;;;5068836;28;20048;-83
2023/12/13 06:00:14;;;;;;;16.40;9.98;;;7.60;99.90;;;;;;5052019;28;20046;-84
2023/12/13 06:02:40;;;;;;;18.83;10.88;;;7.60;99.90;;;;;;5101461;28;20111;-84
2023/12/13 06:05:07;;;;;;;19.80;10.13;;;7.60;99.90;;;;;;5084495;28;20022;-83
2023/12/13 06:07:33;;;;;;;17.27;10.25;;;7.60;99.90;;;;;;5051104;28;20043;-83
2023/12/13 06:09:59;;;;;;;17.20;10.18;;;7.60;99.90;;;;;;5079111;28;20288;-84
2023/12/13 06:12:24;;;;;;;19.00;10.00;;;7.60;99.90;;;;;;5050806;28;20040;-84
2023/12/13 06:14:50;;;;;;;16.90;9.98;;;7.60;99.90;;;;;;5083594;28;20163;-84
2023/12/13 06:17:16;;;;;;;17.48;10.02;;;7.60;99.90;;;;;;5083674;28;20047;-84
2023/12/13 06:19:42;;;;;;;19.83;10.52;;;7.60;99.90;;;;;;5066961;28;20028;-84
2023/12/13 06:22:09;;;;;;;16.63;9.95;;;7.60;99.90;;;;;;5050538;28;20116;-84
2023/12/13 06:24:34;;;;;;;19.52;11.10;;;7.60;99.90;;;;;;5100861;28;20177;-84
2023/12/13 06:27:00;;;;;;;17.88;10.82;;;7.60;99.90;;;;;;5066926;28;20109;-84
2023/12/13 06:29:26;;;;;;;20.08;11.75;;;7.60;99.90;;;;;;5086261;28;20040;-84
2023/12/13 06:31:51;;;;;;;20.02;11.25;;;7.60;99.90;;;;;;5071701;28;20062;-84
2023/12/13 06:34:17;;;;;;;16.17;10.18;;;7.60;99.90;;;;;;5066429;28;20032;-83
2023/12/13 06:36:43;;;;;;;16.77;9.80;;;7.60;99.90;;;;;;5069029;28;20055;-83
2023/12/13 06:39:11;;;;;;;16.98;10.65;;;7.60;99.90;;;;;;5066732;28;20032;-84
2023/12/13 06:41:38;;;;;;;17.10;10.07;;;7.60;99.90;;;;;;5055480;28;20272;-83
2023/12/13 06:44:04;;;;;;;18.70;10.63;;;7.60;99.90;;;;;;5050541;28;20028;-84
2023/12/13 06:46:30;;;;;;;17.95;9.77;;;7.60;99.90;;;;;;5083633;28;20383;-84
2023/12/13 06:48:56;;;;;;;17.70;10.15;;;7.50;99.90;;;;;;5073998;28;20036;-84
2023/12/13 06:51:21;;;;;;;18.42;10.30;;;7.60;99.90;;;;;;5067286;28;20028;-84
2023/12/13 06:53:47;;;;;;;14.95;9.45;;;7.60;99.90;;;;;;5050500;28;20297;-84
2023/12/13 06:56:13;;;;;;;16.23;9.65;;;7.60;99.90;;;;;;5066812;28;20035;-84
2023/12/13 06:58:39;;;;;;;18.52;9.70;;;7.50;99.90;;;;;;5083212;28;20339;-84
2023/12/13 07:01:05;;;;;;;16.00;9.88;;;7.50;99.90;;;;;;5083565;28;20099;-84
2023/12/13 07:03:31;;;;;;;18.75;10.60;;;7.60;99.90;;;;;;5100192;28;20047;-83
2023/12/13 07:05:57;;;;;;;17.35;10.48;;;7.60;99.90;;;;;;5083252;28;20141;-84
2023/12/13 07:08:22;;;;;;;16.75;10.38;;;7.60;99.90;;;;;;5083023;28;20082;-84
2023/12/13 07:10:48;;;;;;;16.38;10.40;;;7.60;99.90;;;;;;5066773;28;20044;-84
2023/12/13 07:13:14;;;;;;;18.30;11.05;;;7.60;99.90;;;;;;5086027;28;20031;-84
2023/12/13 07:15:40;;;;;;;18.65;10.50;;;7.60;99.90;;;;;;5083056;28;20269;-84
2023/12/13 07:18:06;;;;;;;17.10;10.13;;;7.60;99.90;;;;;;5066276;28;20092;-84
2023/12/13 07:20:31;;;;;;;15.60;9.90;;;7.60;99.90;;;;;;5066278;28;20028;-84
2023/12/13 07:22:58;;;;;;;18.23;10.35;;;7.60;99.90;;;;;;5066769;28;20036;-84
2023/12/13 07:25:23;;;;;;;17.58;10.35;;;7.60;99.90;;;;;;5082324;28;20062;-84
2023/12/13 07:27:49;;;;;;;18.52;10.90;;;7.60;99.90;;;;;;5066193;28;20052;-84
2023/12/13 07:30:15;;;;;;;17.25;10.27;;;7.70;99.90;;;;;;5051524;28;20028;-84
2023/12/13 07:32:42;;;;;;;15.98;10.48;;;7.70;99.90;;;;;;5070974;28;20032;-83
2023/12/13 07:35:08;;;;;;;19.65;10.50;;;7.60;99.90;;;;;;5065716;28;21267;-84
2023/12/13 07:37:35;;;;;;;20.48;11.18;;;7.60;99.90;;;;;;5088020;28;20289;-84
2023/12/13 07:40:03;;;;;;;17.55;10.80;;;7.60;99.90;;;;;;5067794;28;20039;-83
2023/12/13 07:42:31;;;;;;;18.58;11.10;;;7.70;99.90;;;;;;5082965;28;20204;-84
2023/12/13 07:44:57;;;;;;;19.00;10.95;;;7.60;99.90;;;;;;5083590;28;20075;-84
2023/12/13 07:47:23;;;;;;;18.17;11.45;;;7.70;99.90;;;;;;5069277;28;20238;-84
2023/12/13 07:49:49;;;;;;;17.92;11.02;;;7.70;99.90;;;;;;5086354;28;20046;-83
2023/12/13 07:52:15;;;;;;;19.40;10.82;;;7.70;99.90;;;;;;5070341;28;20642;-83
2023/12/13 07:54:42;;;;;;;21.55;11.65;;;7.70;99.90;;;;;;5102844;28;20066;-84
2023/12/13 07:57:08;;;;;;;21.10;10.98;;;7.60;99.90;;;;;;5084106;28;20032;-84
2023/12/13 07:59:34;;;;;;;17.85;10.88;;;7.70;99.90;;;;;;5068714;28;20028;-84
2023/12/13 08:02:00;;;;;;;17.30;11.02;;;7.70;99.90;;;;;;5069594;28;20036;-84
2023/12/13 08:04:26;;;;;;;17.75;10.40;;;7.70;99.90;;;;;;5090492;28;20075;-84
2023/12/13 08:06:52;;;;;;;19.67;11.63;;;7.70;99.90;;;;;;5085745;28;20246;-84
2023/12/13 08:09:19;;;;;;;18.45;11.10;;;7.70;99.90;;;;;;5107167;28;20131;-83
2023/12/13 08:11:46;;;;;;;21.73;12.05;;;7.70;99.90;;;;;;5069276;28;20032;-84
2023/12/13 08:14:16;;;;;;;20.17;12.10;;;7.70;99.90;;;;;;5077081;28;20056;-83
2023/12/13 08:16:42;;;;;;;18.98;11.65;;;7.70;99.90;;;;;;5087272;28;20186;-84
2023/12/13 08:19:08;;;;;;;19.73;11.90;;;7.70;99.90;;;;;;5053151;28;20306;-85
2023/12/13 08:21:40;;;;;;;19.05;12.18;;;7.70;99.90;;;;;;5096679;28;20035;-84
2023/12/13 08:24:07;;;;;;;20.30;11.40;;;7.70;99.90;;;;;;5101948;28;20044;-83
2023/12/13 08:26:33;;;;;;;19.10;12.40;;;7.70;99.90;;;;;;5090268;28;20044;-84
2023/12/13 08:28:59;;;;;;;21.33;11.98;;;7.70;99.90;;;;;;5069150;28;20185;-84
2023/12/13 08:31:25;;;;;;;20.00;11.90;;;7.70;99.90;;;;;;5074486;28;20046;-83
2023/12/13 08:33:51;;;;;;;20.95;12.85;;;7.70;99.90;;;;;;5057594;28;20032;-84
2023/12/13 08:36:17;;;;;;;23.90;13.30;;;7.70;99.90;;;;;;5056297;28;20035;-83
2023/12/13 08:38:43;;;;;;;21.23;12.55;;;7.70;99.90;;;;;;5085742;28;20016;-83
2023/12/13 08:41:11;;;;;;;18.95;12.18;;;7.80;99.90;;;;;;5101523;28;20282;-84
2023/12/13 08:43:38;;;;;;;22.17;13.07;;;7.80;99.90;;;;;;5076487;28;20091;-84
2023/12/13 08:46:04;;;;;;;18.90;12.30;;;7.80;99.90;;;;;;5091764;28;20092;-84
2023/12/13 08:48:30;;;;;;;20.85;13.25;;;7.80;99.90;;;;;;5086254;28;20042;-83
2023/12/13 08:50:57;;;;;;;22.02;13.63;;;7.80;99.90;;;;;;5052318;28;20047;-83
2023/12/13 08:53:24;;;;;;;19.35;12.70;;;7.80;99.90;;;;;;5102446;28;20035;-84
2023/12/13 08:55:49;;;;;;;22.98;12.25;;;7.80;99.90;;;;;;5056238;28;20043;-83
2023/12/13 08:58:15;;;;;;;22.05;12.50;;;7.80;99.90;;;;;;5051803;28;20234;-83
2023/12/13 09:00:41;;;;;;;19.45;12.55;;;7.80;99.90;;;;;;5069405;28;20028;-84
2023/12/13 09:03:08;;;;;;;20.05;12.63;;;7.80;99.90;;;;;;5055301;28;20081;-84
2023/12/13 09:05:35;;;;;;;21.13;13.15;;;7.80;99.90;;;;;;5059916;28;20203;-85
2023/12/13 09:08:00;;;;;;;21.02;12.63;;;7.90;99.90;;;;;;5073209;28;20051;-84
2023/12/13 09:10:29;;;;;;;22.58;12.93;;;7.80;99.90;;;;;;5054942;28;20032;-83
2023/12/13 09:12:55;;;;;;;22.25;12.30;;;7.90;99.90;;;;;;5093277;28;20138;-84
2023/12/13 09:15:21;;;;;;;18.95;11.88;;;7.90;99.90;;;;;;5068663;28;20087;-84
2023/12/13 09:17:47;;;;;;;22.00;12.95;;;7.90;99.90;;;;;;5069248;28;20028;-83
2023/12/13 09:20:16;;;;;;;20.40;12.20;;;7.90;99.90;;;;;;5051661;28;20035;-84
2023/12/13 09:22:43;;;;;;;19.90;12.32;;;8.00;99.90;;;;;;5092443;28;20032;-83
2023/12/13 09:25:09;;;;;;;19.08;11.63;;;8.00;99.90;;;;;;5092641;28;20067;-83
2023/12/13 09:27:36;;;;;;;21.92;13.32;;;8.00;99.90;;;;;;5068514;28;20056;-83
2023/12/13 09:30:02;;;;;;;21.42;13.07;;;8.10;99.90;;;;;;5051820;28;20052;-84
2023/12/13 09:32:28;;;;;;;20.17;12.77;;;8.10;99.90;;;;;;5085880;28;20035;-84
2023/12/13 09:34:55;;;;;;;21.13;13.02;;;8.10;99.90;;;;;;5075404;28;20031;-84
2023/12/13 09:37:21;;;;;;;20.63;13.07;;;8.10;99.90;;;;;;5068388;28;20223;-83
2023/12/13 09:39:46;;;;;;;21.70;12.45;;;8.10;99.90;;;;;;5072086;28;20213;-83
2023/12/13 09:42:13;;;;;;;26.35;13.57;;;8.20;99.90;;;;;;5069300;28;20075;-83
2023/12/13 09:44:40;;;;;;;22.70;12.93;;;8.30;99.90;;;;;;5085850;28;20110;-84
2023/12/13 09:47:07;;;;;;;25.23;13.15;;;8.30;99.90;;;;;;5086940;28;20036;-86
2023/12/13 09:49:36;;;;;;;21.50;13.40;;;8.40;99.90;;;;;;5062455;28;20070;-83
2023/12/13 09:52:08;;;;;;;21.40;13.13;;;8.40;99.90;;;;;;5094137;28;20056;-83
2023/12/13 09:54:37;;;;;;;20.90;13.05;;;8.40;99.90;;;;;;5093763;28;20030;-83
2023/12/13 09:57:04;;;;;;;18.77;12.10;;;8.40;99.90;;;;;;5089116;28;20162;-83
2023/12/13 09:59:30;;;;;;;23.95;13.50;;;8.50;99.90;;;;;;5101576;28;20028;-84
2023/12/13 10:01:56;;;;;;;22.15;13.15;;;8.60;99.90;;;;;;5071755;28;20081;-83
2023/12/13 10:04:28;;;;;;;25.50;13.85;;;8.60;99.90;;;;;;5068888;28;20334;-83
2023/12/13 10:06:55;;;;;;;21.67;13.18;;;8.60;99.90;;;;;;5071103;28;20031;-83
2023/12/13 10:09:26;;;;;;;20.88;13.18;;;8.70;99.90;;;;;;5110958;28;20024;-83
2023/12/13 10:11:54;;;;;;;22.35;13.45;;;8.70;99.90;;;;;;5080142;28;20261;-83
2023/12/13 10:14:19;;;;;;;24.42;13.10;;;8.80;99.90;;;;;;5093371;28;20040;-84
2023/12/13 10:16:45;;;;;;;23.00;13.98;;;8.80;99.90;;;;;;5072449;28;20329;-84
2023/12/13 10:19:11;;;;;;;21.33;13.63;;;8.90;99.90;;;;;;5090149;28;20034;-83
2023/12/13 10:21:37;;;;;;;21.17;13.40;;;8.90;99.90;;;;;;5051407;28;20035;-83
2023/12/13 10:24:06;;;;;;;22.88;13.18;;;8.90;99.90;;;;;;5068511;28;20243;-83
2023/12/13 10:26:35;;;;;;;20.77;12.80;;;8.90;99.90;;;;;;5080641;28;20294;-83
2023/12/13 10:29:03;;;;;;;20.85;12.23;;;9.00;99.90;;;;;;5063694;28;20270;-83
2023/12/13 10:31:31;;;;;;;21.13;13.50;;;9.00;99.90;;;;;;5047403;28;20090;-83
2023/12/13 10:33:56;;;;;;;22.33;13.15;;;9.00;99.90;;;;;;5080167;28;20293;-84
2023/12/13 10:36:25;;;;;;;22.30;12.98;;;9.00;99.90;;;;;;5063748;28;20028;-85
2023/12/13 10:38:53;;;;;;;19.92;12.75;;;9.00;99.90;;;;;;5063322;28;20040;-83
2023/12/13 10:41:25;;;;;;;21.73;13.80;;;9.00;99.90;;;;;;5080016;28;20083;-84
2023/12/13 10:43:55;;;;;;;23.47;13.83;;;9.00;99.90;;;;;;5079432;28;20155;-83
2023/12/13 10:46:22;;;;;;;23.90;13.52;;;9.00;99.90;;;;;;5080565;28;20043;-84
2023/12/13 10:48:48;;;;;;;25.52;13.75;;;9.00;99.90;;;;;;5046912;28;20296;-84
2023/12/13 10:51:16;;;;;;;20.00;12.90;;;9.00;99.90;;;;;;5080274;28;20298;-84
2023/12/13 10:53:44;;;;;;;22.55;13.75;;;9.00;99.90;;;;;;5079770;28;20035;-84
2023/12/13 10:56:11;;;;;;;21.27;13.95;;;9.00;99.90;;;;;;5080242;28;20029;-84
2023/12/13 10:58:38;;;;;;;21.30;12.70;;;9.00;99.90;;;;;;5046581;28;20040;-84
2023/12/13 11:01:05;;;;;;;21.77;13.30;;;8.90;99.90;;;;;;5079939;28;20279;-84
2023/12/13 11:03:57;;;;;;;22.92;13.85;;;8.90;99.90;;;;;;5063062;28;20035;-84
2023/12/13 11:06:22;;;;;;;21.35;13.90;;;8.90;99.90;;;;;;5080356;28;20033;-84
2023/12/13 11:08:48;;;;;;;22.35;13.35;;;8.80;99.90;;;;;;5059922;28;20040;-84
2023/12/13 11:11:17;;;;;;;22.70;13.75;;;8.80;99.90;;;;;;5077350;28;20034;-86
2023/12/13 11:13:47;;;;;;;23.50;14.10;;;8.80;99.90;;;;;;5061963;28;20060;-83
2023/12/13 11:16:23;;;;;;;22.70;13.15;;;8.80;99.90;;;;;;5063624;28;20071;-84
2023/12/13 11:18:58;;;;;;;22.20;12.82;;;8.80;99.90;;;;;;5063303;28;20036;-84
2023/12/13 11:21:32;;;;;;;23.73;12.77;;;8.80;99.90;;;;;;5064722;28;20619;-84
2023/12/13 11:24:09;;;;;;;20.15;12.90;;;8.80;99.90;;;;;;5083691;28;20032;-84
2023/12/13 11:26:42;;;;;;;21.83;12.73;;;8.80;99.90;;;;;;5067469;28;20044;-84
2023/12/13 11:29:15;;;;;;;;;;;8.80;99.90;;;;;;5067415;28;20039;-84
2023/12/13 11:31:53;;;;;;;20.45;12.88;;;8.70;99.90;;;;;;5067140;28;19958;-83
2023/12/13 11:34:34;;;;;;;19.40;11.68;;;8.80;99.90;;;;;;5083031;28;20036;-83
2023/12/13 11:37:02;;;;;;;24.58;12.52;;;8.80;99.90;;;;;;5084052;28;20028;-84
2023/12/13 11:39:29;;;;;;;20.10;11.77;;;8.70;99.90;;;;;;5066668;28;20278;-84
2023/12/13 11:41:55;;;;;;;21.13;12.82;;;8.70;99.90;;;;;;5083726;28;20052;-84
2023/12/13 11:44:20;;;;;;;22.17;13.63;;;8.70;99.90;;;;;;5083062;28;20109;-84
2023/12/13 11:46:56;;;;;;;20.90;11.90;;;8.70;99.90;;;;;;5050215;28;20036;-84
2023/12/13 11:49:23;;;;;;;19.90;12.45;;;8.70;99.90;;;;;;5082004;28;20115;-84
2023/12/13 11:51:48;;;;;;;21.40;13.10;;;8.70;99.90;;;;;;5065504;28;20143;-85
2023/12/13 11:54:14;;;;;;;21.50;13.85;;;8.70;99.90;;;;;;5065234;28;20055;-84
2023/12/13 11:56:44;;;;;;;22.13;13.93;;;8.70;99.90;;;;;;5045045;28;20028;-84
2023/12/13 11:59:10;;;;;;;21.67;13.30;;;8.70;99.90;;;;;;5044824;28;20230;-84
2023/12/13 12:01:36;;;;;;;18.73;12.38;;;8.70;99.90;;;;;;5082718;28;20036;-85
2023/12/13 12:04:02;;;;;;;18.75;12.10;;;8.60;99.90;;;;;;5066035;28;20029;-84
2023/12/13 12:06:28;;;;;;;21.20;12.60;;;8.60;99.90;;;;;;5066286;28;20028;-84
2023/12/13 12:08:54;;;;;;;17.70;11.93;;;8.50;99.90;;;;;;5062589;28;20083;-84
2023/12/13 12:11:21;;;;;;;18.40;11.70;;;8.50;99.90;;;;;;5082317;28;20049;-84
2023/12/13 12:13:50;;;;;;;17.10;10.55;;;8.50;99.90;;;;;;5049763;28;20024;-85
2023/12/13 12:16:17;;;;;;;14.90;8.85;;;8.50;99.90;;;;;;5079361;28;20077;-84
2023/12/13 12:18:43;;;;;;;13.20;8.00;;;8.40;99.90;;;;;;5064997;28;20317;-84
2023/12/13 12:21:10;;;;;;;10.93;5.93;;;8.40;99.90;;;;;;5082093;28;20040;-85
2023/12/13 12:23:39;;;;;;;9.70;5.32;;;8.40;99.90;;;;;;5065605;28;20100;-84
2023/12/13 12:26:09;;;;;;;11.15;5.95;;;8.30;99.90;;;;;;5103353;28;20059;-84
2023/12/13 12:28:36;;;;;;;10.40;5.75;;;8.30;99.90;;;;;;5065444;28;20051;-85
2023/12/13 12:31:02;;;;;;;9.68;5.00;;;8.30;99.90;;;;;;5065853;28;20178;-85
2023/12/13 12:33:28;;;;;;;9.07;4.55;;;8.20;99.90;;;;;;5064909;28;20138;-84
2023/12/13 12:35:55;;;;;;;9.10;4.55;;;8.20;99.90;;;;;;5048741;28;20028;-84